Route Details

Aircraft Information
Group: North America Fleet
Types: B738, B752, B762, B763
Route Data
Distance: 1578nm
Duration: 3h 54m
Origin METAR: KPHX 072351Z 24008KT 10SM FEW090 20/M08 A3013 RMK AO2 SLP195 T02001078 10206 20150 56011
Dest. METAR: KLAL 072355Z AUTO 09005KT 10SM CLR 21/11 A3025 RMK AO2 T02100113
Freight Data
(for Feb 8, 2023)
Load Factor:
70%
Manifested Cargo: 66,124lbs
Financial History
Total Freight: 15,594lbs
Average Load: 0lbs/flt
Fuel Used: 25,358lbs
Avg. Fuel Used: 0lbs/flt
Fuel Expense: $14,961
Avg. Fuel Expense: $0
Avg. Fuel Cost: $0/lbs
Total Gross Income: $42,260
Pilot Pay: $269
Total Expenses: $8,815
Total Revenue: $17,016
Average Revenue: $0

Capitol Logistics 357




KPHX
Phoenix Sky Harbor International Airport
Phoenix, Arizona
KLAL
Lakeland Linder Regional Airport
Lakeland, Florida

Activity Log

Date Flight Route Aircraft Duration
12/20/2022 CPX357 BROAK1 MAXXO DCT PNH DCT MLC DCT SQS DCT MGM DCT ACORI MAATY4 B763 3h 35m